sensor_id;sensor_type;location;lat;lon;timestamp;pressure;altitude;pressure_sealevel;temperature;humidity
39141;BME280;24875;48.436;10.298;2023-05-23T00:00:33;96005.53;;;15.72;100.00
39141;BME280;24875;48.436;10.298;2023-05-23T00:03:01;96007.97;;;15.73;100.00
39141;BME280;24875;48.436;10.298;2023-05-23T00:05:27;96012.16;;;15.56;100.00
39141;BME280;24875;48.436;10.298;2023-05-23T00:07:55;96010.06;;;15.65;100.00
39141;BME280;24875;48.436;10.298;2023-05-23T00:10:21;96017.88;;;15.60;100.00
39141;BME280;24875;48.436;10.298;2023-05-23T00:12:48;96012.19;;;15.50;100.00
39141;BME280;24875;48.436;10.298;2023-05-23T00:15:14;96016.09;;;15.47;100.00
39141;BME280;24875;48.436;10.298;2023-05-23T00:17:41;96019.75;;;15.46;100.00
39141;BME280;24875;48.436;10.298;2023-05-23T00:20:09;96021.34;;;15.54;100.00
39141;BME280;24875;48.436;10.298;2023-05-23T00:22:36;96016.31;;;15.46;100.00
39141;BME280;24875;48.436;10.298;2023-05-23T00:25:06;96023.19;;;15.60;100.00
39141;BME280;24875;48.436;10.298;2023-05-23T00:27:33;96023.66;;;15.44;100.00
39141;BME280;24875;48.436;10.298;2023-05-23T00:29:59;96017.13;;;15.40;100.00
39141;BME280;24875;48.436;10.298;2023-05-23T00:32:26;96016.94;;;15.35;100.00
39141;BME280;24875;48.436;10.298;2023-05-23T00:34:52;96021.06;;;15.31;100.00
39141;BME280;24875;48.436;10.298;2023-05-23T00:37:20;96015.69;;;15.44;100.00
39141;BME280;24875;48.436;10.298;2023-05-23T00:39:46;96022.03;;;15.43;100.00
39141;BME280;24875;48.436;10.298;2023-05-23T00:42:14;96020.59;;;15.47;100.00
39141;BME280;24875;48.436;10.298;2023-05-23T00:44:40;96020.03;;;15.32;100.00
39141;BME280;24875;48.436;10.298;2023-05-23T00:47:07;96025.34;;;15.32;100.00
39141;BME280;24875;48.436;10.298;2023-05-23T00:49:34;96021.69;;;15.20;100.00
39141;BME280;24875;48.436;10.298;2023-05-23T00:52:01;96019.88;;;15.14;100.00
39141;BME280;24875;48.436;10.298;2023-05-23T00:54:29;96022.94;;;15.24;100.00
39141;BME280;24875;48.436;10.298;2023-05-23T00:56:57;96007.22;;;15.23;100.00
39141;BME280;24875;48.436;10.298;2023-05-23T00:59:25;96016.00;;;15.23;100.00
39141;BME280;24875;48.436;10.298;2023-05-23T01:01:53;96013.38;;;15.10;100.00
39141;BME280;24875;48.436;10.298;2023-05-23T01:04:21;96022.34;;;15.09;100.00
39141;BME280;24875;48.436;10.298;2023-05-23T01:06:51;96031.50;;;15.13;100.00
39141;BME280;24875;48.436;10.298;2023-05-23T01:09:18;96031.56;;;15.00;100.00
39141;BME280;24875;48.436;10.298;2023-05-23T01:11:51;96039.09;;;15.23;100.00
39141;BME280;24875;48.436;10.298;2023-05-23T01:14:27;96029.91;;;15.12;100.00
39141;BME280;24875;48.436;10.298;2023-05-23T01:16:57;96036.44;;;15.10;100.00
39141;BME280;24875;48.436;10.298;2023-05-23T01:19:43;96050.91;;;15.20;100.00
39141;BME280;24875;48.436;10.298;2023-05-23T01:22:20;96043.19;;;15.12;100.00
39141;BME280;24875;48.436;10.298;2023-05-23T01:24:53;96040.13;;;15.02;100.00
39141;BME280;24875;48.436;10.298;2023-05-23T01:27:25;96043.00;;;14.88;100.00
39141;BME280;24875;48.436;10.298;2023-05-23T01:29:57;96035.06;;;14.94;100.00
39141;BME280;24875;48.436;10.298;2023-05-23T01:32:27;96045.88;;;14.86;100.00
39141;BME280;24875;48.436;10.298;2023-05-23T01:34:55;96043.19;;;14.99;100.00
39141;BME280;24875;48.436;10.298;2023-05-23T01:37:21;96046.28;;;14.96;100.00
39141;BME280;24875;48.436;10.298;2023-05-23T01:39:48;96037.72;;;14.94;100.00
39141;BME280;24875;48.436;10.298;2023-05-23T01:42:15;96044.03;;;15.00;100.00
39141;BME280;24875;48.436;10.298;2023-05-23T01:44:42;96037.72;;;14.94;100.00
39141;BME280;24875;48.436;10.298;2023-05-23T01:47:11;96038.75;;;14.93;100.00
39141;BME280;24875;48.436;10.298;2023-05-23T01:49:39;96034.06;;;14.82;100.00
39141;BME280;24875;48.436;10.298;2023-05-23T01:52:08;96036.53;;;14.71;100.00
39141;BME280;24875;48.436;10.298;2023-05-23T01:54:36;96038.38;;;14.70;100.00
39141;BME280;24875;48.436;10.298;2023-05-23T01:57:04;96042.47;;;14.73;100.00
39141;BME280;24875;48.436;10.298;2023-05-23T01:59:31;96045.50;;;14.70;100.00
39141;BME280;24875;48.436;10.298;2023-05-23T02:01:58;96047.56;;;14.74;100.00
39141;BME280;24875;48.436;10.298;2023-05-23T02:04:26;96042.63;;;14.84;100.00
39141;BME280;24875;48.436;10.298;2023-05-23T02:10:15;96048.97;;;14.77;100.00
39141;BME280;24875;48.436;10.298;2023-05-23T02:12:41;96050.78;;;14.76;100.00
39141;BME280;24875;48.436;10.298;2023-05-23T02:15:08;96052.84;;;14.74;100.00
39141;BME280;24875;48.436;10.298;2023-05-23T02:17:35;96057.16;;;14.63;100.00
39141;BME280;24875;48.436;10.298;2023-05-23T02:20:05;96049.00;;;14.70;100.00
39141;BME280;24875;48.436;10.298;2023-05-23T02:22:32;96057.97;;;14.69;100.00
39141;BME280;24875;48.436;10.298;2023-05-23T02:24:59;96061.88;;;14.48;100.00
39141;BME280;24875;48.436;10.298;2023-05-23T02:27:26;96056.16;;;14.44;100.00
39141;BME280;24875;48.436;10.298;2023-05-23T02:29:52;96053.69;;;14.56;100.00
39141;BME280;24875;48.436;10.298;2023-05-23T02:32:19;96058.56;;;14.59;100.00
39141;BME280;24875;48.436;10.298;2023-05-23T02:34:45;96056.13;;;14.63;100.00
39141;BME280;24875;48.436;10.298;2023-05-23T02:37:15;96060.41;;;14.64;100.00
39141;BME280;24875;48.436;10.298;2023-05-23T02:39:42;96055.72;;;14.47;100.00
39141;BME280;24875;48.436;10.298;2023-05-23T02:42:09;96061.03;;;14.41;100.00
39141;BME280;24875;48.436;10.298;2023-05-23T02:44:35;96064.09;;;14.44;100.00
39141;BME280;24875;48.436;10.298;2023-05-23T02:47:02;96064.94;;;14.45;100.00
39141;BME280;24875;48.436;10.298;2023-05-23T02:49:28;96060.03;;;14.42;100.00
39141;BME280;24875;48.436;10.298;2023-05-23T02:51:54;96062.06;;;14.40;100.00
39141;BME280;24875;48.436;10.298;2023-05-23T02:54:22;96062.06;;;14.40;100.00
39141;BME280;24875;48.436;10.298;2023-05-23T02:56:49;96062.47;;;14.30;100.00
39141;BME280;24875;48.436;10.298;2023-05-23T02:59:16;96060.66;;;14.37;100.00
39141;BME280;24875;48.436;10.298;2023-05-23T03:01:43;96060.66;;;14.44;100.00
39141;BME280;24875;48.436;10.298;2023-05-23T03:04:09;96060.66;;;14.44;100.00
39141;BME280;24875;48.436;10.298;2023-05-23T03:06:37;96062.28;;;14.45;100.00
39141;BME280;24875;48.436;10.298;2023-05-23T03:09:06;96067.16;;;14.41;100.00
39141;BME280;24875;48.436;10.298;2023-05-23T03:11:34;96058.41;;;14.54;100.00
39141;BME280;24875;48.436;10.298;2023-05-23T03:14:00;96058.00;;;14.44;100.00
39141;BME280;24875;48.436;10.298;2023-05-23T03:16:27;96056.34;;;14.49;100.00
39141;BME280;24875;48.436;10.298;2023-05-23T03:18:54;96055.34;;;14.37;100.00
39141;BME280;24875;48.436;10.298;2023-05-23T03:21:20;96052.06;;;14.42;100.00
39141;BME280;24875;48.436;10.298;2023-05-23T03:23:47;96055.72;;;14.47;100.00
39141;BME280;24875;48.436;10.298;2023-05-23T03:26:14;96057.78;;;14.52;100.00
39141;BME280;24875;48.436;10.298;2023-05-23T03:28:42;96054.09;;;14.59;100.00
39141;BME280;24875;48.436;10.298;2023-05-23T03:31:09;96060.63;;;14.57;100.00
39141;BME280;24875;48.436;10.298;2023-05-23T03:33:35;96054.31;;;14.58;100.00
39141;BME280;24875;48.436;10.298;2023-05-23T03:36:02;96057.56;;;14.60;100.00
39141;BME280;24875;48.436;10.298;2023-05-23T03:38:28;96059.81;;;14.63;100.00
39141;BME280;24875;48.436;10.298;2023-05-23T03:40:55;96058.78;;;14.63;100.00
39141;BME280;24875;48.436;10.298;2023-05-23T03:43:21;96062.25;;;14.64;100.00
39141;BME280;24875;48.436;10.298;2023-05-23T03:45:49;96059.38;;;14.78;100.00
39141;BME280;24875;48.436;10.298;2023-05-23T03:48:16;96051.19;;;14.80;100.00
39141;BME280;24875;48.436;10.298;2023-05-23T03:50:42;96059.31;;;14.98;100.00
39141;BME280;24875;48.436;10.298;2023-05-23T03:53:09;96055.63;;;15.05;100.00
39141;BME280;24875;48.436;10.298;2023-05-23T03:55:35;96054.38;;;15.14;100.00
39141;BME280;24875;48.436;10.298;2023-05-23T03:58:02;96058.25;;;15.24;100.00
39141;BME280;24875;48.436;10.298;2023-05-23T04:00:28;96063.97;;;15.28;100.00
39141;BME280;24875;48.436;10.298;2023-05-23T04:02:56;96060.06;;;15.37;100.00
39141;BME280;24875;48.436;10.298;2023-05-23T04:05:23;96070.69;;;15.30;100.00
39141;BME280;24875;48.436;10.298;2023-05-23T04:07:49;96070.72;;;15.11;100.00
39141;BME280;24875;48.436;10.298;2023-05-23T04:10:16;96069.94;;;14.98;100.00
39141;BME280;24875;48.436;10.298;2023-05-23T04:12:43;96074.44;;;14.97;100.00
39141;BME280;24875;48.436;10.298;2023-05-23T04:15:10;96069.91;;;15.04;100.00
39141;BME280;24875;48.436;10.298;2023-05-23T04:17:36;96070.31;;;15.14;100.00
39141;BME280;24875;48.436;10.298;2023-05-23T04:20:06;96074.19;;;15.24;100.00
39141;BME280;24875;48.436;10.298;2023-05-23T04:22:33;96076.41;;;15.15;100.00
39141;BME280;24875;48.436;10.298;2023-05-23T04:25:00;96080.94;;;15.14;100.00
39141;BME280;24875;48.436;10.298;2023-05-23T04:27:26;96079.69;;;15.17;100.00
39141;BME280;24875;48.436;10.298;2023-05-23T04:29:53;96084.19;;;15.16;100.00
39141;BME280;24875;48.436;10.298;2023-05-23T04:32:20;96092.16;;;15.29;100.00
39141;BME280;24875;48.436;10.298;2023-05-23T04:34:47;96096.03;;;15.14;100.00
39141;BME280;24875;48.436;10.298;2023-05-23T04:37:15;96099.31;;;15.22;100.00
39141;BME280;24875;48.436;10.298;2023-05-23T04:39:46;96096.66;;;15.22;100.00
39141;BME280;24875;48.436;10.298;2023-05-23T04:42:13;96099.13;;;15.24;100.00
39141;BME280;24875;48.436;10.298;2023-05-23T04:44:39;96097.03;;;15.32;100.00
39141;BME280;24875;48.436;10.298;2023-05-23T04:47:06;96105.13;;;15.56;100.00
39141;BME280;24875;48.436;10.298;2023-05-23T04:49:34;96107.78;;;15.56;100.00
39141;BME280;24875;48.436;10.298;2023-05-23T04:52:00;96101.66;;;15.56;100.00
39141;BME280;24875;48.436;10.298;2023-05-23T04:54:28;96100.13;;;15.73;100.00
39141;BME280;24875;48.436;10.298;2023-05-23T04:56:55;96106.41;;;15.84;100.00
39141;BME280;24875;48.436;10.298;2023-05-23T04:59:21;96107.13;;;16.04;100.00
39141;BME280;24875;48.436;10.298;2023-05-23T05:01:48;96116.47;;;16.13;100.00
39141;BME280;24875;48.436;10.298;2023-05-23T05:04:15;96109.47;;;16.19;100.00
39141;BME280;24875;48.436;10.298;2023-05-23T05:06:41;96114.75;;;16.32;100.00
39141;BME280;24875;48.436;10.298;2023-05-23T05:09:07;96113.84;;;16.44;100.00
39141;BME280;24875;48.436;10.298;2023-05-23T05:11:35;96110.91;;;16.52;100.00
39141;BME280;24875;48.436;10.298;2023-05-23T05:14:02;96108.75;;;16.67;100.00
39141;BME280;24875;48.436;10.298;2023-05-23T05:16:28;96113.63;;;16.70;100.00
39141;BME280;24875;48.436;10.298;2023-05-23T05:18:55;96113.59;;;16.76;100.00
39141;BME280;24875;48.436;10.298;2023-05-23T05:21:21;96111.03;;;16.88;100.00
39141;BME280;24875;48.436;10.298;2023-05-23T05:23:48;96112.38;;;16.97;100.00
39141;BME280;24875;48.436;10.298;2023-05-23T05:26:15;96115.00;;;17.03;100.00
39141;BME280;24875;48.436;10.298;2023-05-23T05:28:43;96113.75;;;17.06;100.00
39141;BME280;24875;48.436;10.298;2023-05-23T05:31:09;96111.97;;;17.17;100.00
39141;BME280;24875;48.436;10.298;2023-05-23T05:33:39;96116.25;;;17.25;100.00
39141;BME280;24875;48.436;10.298;2023-05-23T05:36:06;96115.66;;;17.41;100.00
39141;BME280;24875;48.436;10.298;2023-05-23T05:38:32;96124.41;;;17.48;100.00
39141;BME280;24875;48.436;10.298;2023-05-23T05:40:59;96124.59;;;17.46;100.00
39141;BME280;24875;48.436;10.298;2023-05-23T05:43:25;96131.13;;;17.50;100.00
39141;BME280;24875;48.436;10.298;2023-05-23T05:45:53;96135.94;;;17.60;100.00
39141;BME280;24875;48.436;10.298;2023-05-23T05:48:19;96149.78;;;17.50;100.00
39141;BME280;24875;48.436;10.298;2023-05-23T05:50:46;96146.44;;;17.37;100.00
39141;BME280;24875;48.436;10.298;2023-05-23T05:53:13;96155.22;;;17.37;100.00
39141;BME280;24875;48.436;10.298;2023-05-23T05:55:39;96150.19;;;17.47;100.00
39141;BME280;24875;48.436;10.298;2023-05-23T05:58:06;96159.53;;;17.38;100.00
39141;BME280;24875;48.436;10.298;2023-05-23T06:00:32;96160.53;;;17.37;100.00
39141;BME280;24875;48.436;10.298;2023-05-23T06:03:07;96157.31;;;17.35;100.00
39141;BME280;24875;48.436;10.298;2023-05-23T06:05:34;96159.59;;;17.32;100.00
39141;BME280;24875;48.436;10.298;2023-05-23T06:08:01;96161.44;;;17.31;100.00
39141;BME280;24875;48.436;10.298;2023-05-23T06:10:28;96161.59;;;17.36;100.00
39141;BME280;24875;48.436;10.298;2023-05-23T06:12:54;96165.88;;;17.37;100.00
39141;BME280;24875;48.436;10.298;2023-05-23T06:15:21;96164.88;;;17.56;100.00
39141;BME280;24875;48.436;10.298;2023-05-23T06:17:47;96164.34;;;17.48;100.00
39141;BME280;24875;48.436;10.298;2023-05-23T06:20:17;96166.50;;;17.75;100.00
39141;BME280;24875;48.436;10.298;2023-05-23T06:22:43;96163.19;;;17.62;100.00
39141;BME280;24875;48.436;10.298;2023-05-23T06:25:10;96162.56;;;17.60;100.00
39141;BME280;24875;48.436;10.298;2023-05-23T06:27:36;96168.84;;;17.65;100.00
39141;BME280;24875;48.436;10.298;2023-05-23T06:30:05;96166.81;;;17.67;100.00
39141;BME280;24875;48.436;10.298;2023-05-23T06:32:31;96175.09;;;17.59;100.00
39141;BME280;24875;48.436;10.298;2023-05-23T06:34:58;96169.91;;;17.64;100.00
39141;BME280;24875;48.436;10.298;2023-05-23T06:37:26;96170.13;;;17.63;100.00
39141;BME280;24875;48.436;10.298;2023-05-23T06:39:52;96170.94;;;17.63;100.00
39141;BME280;24875;48.436;10.298;2023-05-23T06:42:19;96165.91;;;17.73;100.00
39141;BME280;24875;48.436;10.298;2023-05-23T06:44:45;96175.19;;;17.71;100.00
39141;BME280;24875;48.436;10.298;2023-05-23T06:47:12;96171.38;;;17.78;100.00
39141;BME280;24875;48.436;10.298;2023-05-23T06:49:38;96176.72;;;17.78;100.00
39141;BME280;24875;48.436;10.298;2023-05-23T06:52:05;96168.28;;;17.81;100.00
39141;BME280;24875;48.436;10.298;2023-05-23T06:54:33;96173.75;;;17.86;100.00
39141;BME280;24875;48.436;10.298;2023-05-23T06:56:59;96170.56;;;17.77;100.00
39141;BME280;24875;48.436;10.298;2023-05-23T06:59:26;96165.00;;;17.79;100.00
39141;BME280;24875;48.436;10.298;2023-05-23T07:01:52;96165.00;;;17.97;100.00
39141;BME280;24875;48.436;10.298;2023-05-23T07:04:19;96174.94;;;18.08;100.00
39141;BME280;24875;48.436;10.298;2023-05-23T07:06:45;96182.94;;;18.08;100.00
39141;BME280;24875;48.436;10.298;2023-05-23T07:09:12;96181.28;;;18.07;100.00
39141;BME280;24875;48.436;10.298;2023-05-23T07:11:40;96184.25;;;18.17;100.00
39141;BME280;24875;48.436;10.298;2023-05-23T07:14:06;96179.16;;;18.15;100.00
39141;BME280;24875;48.436;10.298;2023-05-23T07:16:33;96179.50;;;18.19;100.00
39141;BME280;24875;48.436;10.298;2023-05-23T07:19:00;96179.06;;;18.39;100.00
39141;BME280;24875;48.436;10.298;2023-05-23T07:21:27;96185.09;;;18.46;100.00
39141;BME280;24875;48.436;10.298;2023-05-23T07:23:53;96172.16;;;18.61;100.00
39141;BME280;24875;48.436;10.298;2023-05-23T07:26:20;96184.28;;;18.75;100.00
39141;BME280;24875;48.436;10.298;2023-05-23T07:28:48;96182.69;;;18.56;100.00
39141;BME280;24875;48.436;10.298;2023-05-23T07:31:14;96180.97;;;18.62;100.00
39141;BME280;24875;48.436;10.298;2023-05-23T07:33:41;96181.25;;;18.42;100.00
39141;BME280;24875;48.436;10.298;2023-05-23T07:36:07;96178.66;;;18.65;100.00
39141;BME280;24875;48.436;10.298;2023-05-23T07:38:34;96180.69;;;18.52;100.00
39141;BME280;24875;48.436;10.298;2023-05-23T07:41:00;96183.50;;;18.57;100.00
39141;BME280;24875;48.436;10.298;2023-05-23T07:43:27;96183.19;;;18.65;100.00
39141;BME280;24875;48.436;10.298;2023-05-23T07:45:55;96181.72;;;18.80;100.00
39141;BME280;24875;48.436;10.298;2023-05-23T07:48:21;96191.81;;;18.78;100.00
39141;BME280;24875;48.436;10.298;2023-05-23T07:50:48;96189.88;;;18.85;100.00
39141;BME280;24875;48.436;10.298;2023-05-23T07:53:19;96194.75;;;18.88;100.00
39141;BME280;24875;48.436;10.298;2023-05-23T07:55:45;96197.97;;;18.90;100.00
39141;BME280;24875;48.436;10.298;2023-05-23T07:58:12;96191.16;;;18.94;100.00
39141;BME280;24875;48.436;10.298;2023-05-23T08:00:38;96188.38;;;18.89;100.00
39141;BME280;24875;48.436;10.298;2023-05-23T08:03:07;96196.28;;;18.95;100.00
39141;BME280;24875;48.436;10.298;2023-05-23T08:05:33;96196.50;;;18.94;100.00
39141;BME280;24875;48.436;10.298;2023-05-23T08:07:59;96195.50;;;19.06;100.00
39141;BME280;24875;48.436;10.298;2023-05-23T08:10:26;96187.63;;;19.11;100.00
39141;BME280;24875;48.436;10.298;2023-05-23T08:12:54;96200.28;;;18.75;100.00
39141;BME280;24875;48.436;10.298;2023-05-23T08:15:20;96196.25;;;18.84;100.00
39141;BME280;24875;48.436;10.298;2023-05-23T08:17:48;96199.81;;;18.78;100.00
39141;BME280;24875;48.436;10.298;2023-05-23T08:20:16;96192.63;;;18.49;100.00
39141;BME280;24875;48.436;10.298;2023-05-23T08:22:42;96197.81;;;18.15;100.00
39141;BME280;24875;48.436;10.298;2023-05-23T08:25:09;96207.72;;;18.08;100.00
39141;BME280;24875;48.436;10.298;2023-05-23T08:27:35;96202.78;;;18.12;100.00
39141;BME280;24875;48.436;10.298;2023-05-23T08:30:02;96204.19;;;18.14;100.00
39141;BME280;24875;48.436;10.298;2023-05-23T08:32:29;96204.34;;;18.01;100.00
39141;BME280;24875;48.436;10.298;2023-05-23T08:34:55;96207.09;;;18.31;100.00
39141;BME280;24875;48.436;10.298;2023-05-23T08:37:23;96208.06;;;18.47;100.00
39141;BME280;24875;48.436;10.298;2023-05-23T08:39:50;96213.66;;;18.46;100.00
39141;BME280;24875;48.436;10.298;2023-05-23T08:42:17;96206.25;;;18.59;100.00
39141;BME280;24875;48.436;10.298;2023-05-23T08:44:43;96219.38;;;18.61;100.00
39141;BME280;24875;48.436;10.298;2023-05-23T08:47:11;96219.38;;;18.61;100.00
39141;BME280;24875;48.436;10.298;2023-05-23T08:49:39;96215.19;;;18.53;100.00
39141;BME280;24875;48.436;10.298;2023-05-23T08:52:07;96220.09;;;18.68;100.00
39141;BME280;24875;48.436;10.298;2023-05-23T08:54:37;96218.16;;;18.45;100.00
39141;BME280;24875;48.436;10.298;2023-05-23T08:57:05;96219.22;;;18.44;100.00
39141;BME280;24875;48.436;10.298;2023-05-23T08:59:32;96219.13;;;18.51;100.00
39141;BME280;24875;48.436;10.298;2023-05-23T09:02:02;96219.31;;;18.67;100.00
39141;BME280;24875;48.436;10.298;2023-05-23T09:04:28;96222.53;;;18.69;100.00
39141;BME280;24875;48.436;10.298;2023-05-23T09:06:56;96226.13;;;19.04;100.00
39141;BME280;24875;48.436;10.298;2023-05-23T09:09:24;96227.47;;;19.24;100.00
39141;BME280;24875;48.436;10.298;2023-05-23T09:11:53;96232.59;;;19.26;100.00
39141;BME280;24875;48.436;10.298;2023-05-23T09:14:20;96234.59;;;19.42;100.00
39141;BME280;24875;48.436;10.298;2023-05-23T09:16:46;96235.41;;;19.54;100.00
39141;BME280;24875;48.436;10.298;2023-05-23T09:19:14;96231.78;;;19.82;100.00
39141;BME280;24875;48.436;10.298;2023-05-23T09:21:42;96233.09;;;19.91;100.00
39141;BME280;24875;48.436;10.298;2023-05-23T09:24:08;96233.19;;;19.73;98.36
39141;BME280;24875;48.436;10.298;2023-05-23T09:26:35;96234.59;;;19.87;98.90
39141;BME280;24875;48.436;10.298;2023-05-23T09:29:04;96230.88;;;20.11;96.59
39141;BME280;24875;48.436;10.298;2023-05-23T09:31:31;96230.91;;;20.27;95.06
39141;BME280;24875;48.436;10.298;2023-05-23T09:33:58;96225.88;;;20.42;94.26
39141;BME280;24875;48.436;10.298;2023-05-23T09:36:26;96223.06;;;20.49;91.84
39141;BME280;24875;48.436;10.298;2023-05-23T09:38:53;96221.50;;;20.25;91.36
39141;BME280;24875;48.436;10.298;2023-05-23T09:41:20;96224.88;;;20.32;91.07
39141;BME280;24875;48.436;10.298;2023-05-23T09:43:50;96218.41;;;20.56;88.29
39141;BME280;24875;48.436;10.298;2023-05-23T09:46:19;96223.16;;;20.93;91.56
39141;BME280;24875;48.436;10.298;2023-05-23T09:48:46;96224.69;;;20.50;88.52
39141;BME280;24875;48.436;10.298;2023-05-23T09:51:13;96208.44;;;20.40;89.90
39141;BME280;24875;48.436;10.298;2023-05-23T09:53:40;96218.97;;;20.58;90.76
39141;BME280;24875;48.436;10.298;2023-05-23T09:56:08;96216.81;;;20.43;92.24
39141;BME280;24875;48.436;10.298;2023-05-23T09:58:37;96220.00;;;20.29;91.38
39141;BME280;24875;48.436;10.298;2023-05-23T10:01:06;96219.97;;;20.40;91.87
39141;BME280;24875;48.436;10.298;2023-05-23T10:03:41;96216.13;;;20.76;92.05
39141;BME280;24875;48.436;10.298;2023-05-23T10:06:15;96218.13;;;20.69;89.09
39141;BME280;24875;48.436;10.298;2023-05-23T10:08:43;96217.28;;;20.68;90.00
39141;BME280;24875;48.436;10.298;2023-05-23T10:14:14;96212.69;;;20.52;89.44
39141;BME280;24875;48.436;10.298;2023-05-23T10:16:48;96216.59;;;21.00;88.47
39141;BME280;24875;48.436;10.298;2023-05-23T10:19:23;96210.75;;;21.03;90.17
39141;BME280;24875;48.436;10.298;2023-05-23T10:21:54;96205.94;;;21.22;85.18
39141;BME280;24875;48.436;10.298;2023-05-23T10:24:23;96208.47;;;21.12;84.41
39141;BME280;24875;48.436;10.298;2023-05-23T10:26:51;96204.25;;;21.65;84.11
39141;BME280;24875;48.436;10.298;2023-05-23T10:29:19;96187.59;;;21.79;83.68
39141;BME280;24875;48.436;10.298;2023-05-23T10:31:46;96196.91;;;22.14;81.98
39141;BME280;24875;48.436;10.298;2023-05-23T10:34:20;96197.66;;;22.26;81.55
39141;BME280;24875;48.436;10.298;2023-05-23T10:36:55;96194.78;;;22.59;79.85
39141;BME280;24875;48.436;10.298;2023-05-23T10:39:41;96195.88;;;22.84;82.30
39141;BME280;24875;48.436;10.298;2023-05-23T10:42:15;96195.06;;;22.15;79.81
39141;BME280;24875;48.436;10.298;2023-05-23T10:44:42;96200.22;;;22.21;83.81
39141;BME280;24875;48.436;10.298;2023-05-23T10:47:09;96195.41;;;22.23;80.66
39141;BME280;24875;48.436;10.298;2023-05-23T10:49:38;96195.50;;;22.28;82.66
39141;BME280;24875;48.436;10.298;2023-05-23T10:52:07;96188.50;;;22.27;83.04
39141;BME280;24875;48.436;10.298;2023-05-23T10:54:34;96199.78;;;22.08;83.77
39141;BME280;24875;48.436;10.298;2023-05-23T18:52:07;96296.25;;;19.29;70.02
39141;BME280;24875;48.436;10.298;2023-05-23T18:54:33;96302.72;;;19.10;69.82
39141;BME280;24875;48.436;10.298;2023-05-23T18:57:00;96310.75;;;18.92;70.54
39141;BME280;24875;48.436;10.298;2023-05-23T18:59:27;96315.00;;;18.82;71.33
39141;BME280;24875;48.436;10.298;2023-05-23T19:01:54;96316.94;;;18.57;71.78
39141;BME280;24875;48.436;10.298;2023-05-23T19:04:23;96321.78;;;18.48;72.90
39141;BME280;24875;48.436;10.298;2023-05-23T19:06:49;96323.06;;;18.46;72.61
39141;BME280;24875;48.436;10.298;2023-05-23T19:09:18;96326.69;;;18.33;73.93
39141;BME280;24875;48.436;10.298;2023-05-23T19:11:45;96330.22;;;18.28;74.07
39141;BME280;24875;48.436;10.298;2023-05-23T19:14:11;96330.34;;;18.15;75.04
39141;BME280;24875;48.436;10.298;2023-05-23T19:16:38;96339.38;;;18.14;75.14
39141;BME280;24875;48.436;10.298;2023-05-23T19:19:05;96339.50;;;18.01;76.37
39141;BME280;24875;48.436;10.298;2023-05-23T19:21:31;96351.06;;;17.95;78.28
39141;BME280;24875;48.436;10.298;2023-05-23T19:23:58;96352.22;;;17.81;78.71
39141;BME280;24875;48.436;10.298;2023-05-23T19:26:26;96359.13;;;17.88;79.01
39141;BME280;24875;48.436;10.298;2023-05-23T19:28:53;96363.13;;;17.49;80.83
39141;BME280;24875;48.436;10.298;2023-05-23T19:31:19;96363.50;;;17.21;82.98
39141;BME280;24875;48.436;10.298;2023-05-23T19:36:11;96371.69;;;17.57;82.76
39141;BME280;24875;48.436;10.298;2023-05-23T19:38:38;96373.50;;;17.32;83.64
39141;BME280;24875;48.436;10.298;2023-05-23T19:41:04;96371.16;;;17.42;86.58
39141;BME280;24875;48.436;10.298;2023-05-23T19:43:31;96374.56;;;17.80;84.24
39141;BME280;24875;48.436;10.298;2023-05-23T19:45:57;96374.19;;;17.76;82.29
39141;BME280;24875;48.436;10.298;2023-05-23T19:48:24;96381.03;;;17.66;83.39
39141;BME280;24875;48.436;10.298;2023-05-23T19:50:51;96381.34;;;17.27;84.25
39141;BME280;24875;48.436;10.298;2023-05-23T19:53:19;96387.78;;;17.44;83.99
39141;BME280;24875;48.436;10.298;2023-05-23T19:55:47;96387.38;;;17.04;86.58
39141;BME280;24875;48.436;10.298;2023-05-23T19:58:13;96390.84;;;17.04;85.42
39141;BME280;24875;48.436;10.298;2023-05-23T20:00:40;96395.72;;;17.13;85.75
39141;BME280;24875;48.436;10.298;2023-05-23T20:03:07;96395.53;;;17.08;85.67
39141;BME280;24875;48.436;10.298;2023-05-23T20:05:33;96398.81;;;17.04;85.59
39141;BME280;24875;48.436;10.298;2023-05-23T20:08:00;96395.84;;;16.81;86.61
39141;BME280;24875;48.436;10.298;2023-05-23T20:10:28;96395.25;;;16.86;87.11
39141;BME280;24875;48.436;10.298;2023-05-23T20:12:54;96399.53;;;16.87;88.00
39141;BME280;24875;48.436;10.298;2023-05-23T20:15:21;96401.84;;;16.77;88.20
39141;BME280;24875;48.436;10.298;2023-05-23T20:17:47;96403.47;;;16.78;89.49
39141;BME280;24875;48.436;10.298;2023-05-23T20:20:14;96405.72;;;16.74;88.73
39141;BME280;24875;48.436;10.298;2023-05-23T20:22:41;96403.91;;;16.68;88.30
39141;BME280;24875;48.436;10.298;2023-05-23T20:25:07;96409.06;;;16.57;89.75
39141;BME280;24875;48.436;10.298;2023-05-23T20:27:35;96415.72;;;16.79;89.51
39141;BME280;24875;48.436;10.298;2023-05-23T20:30:02;96415.97;;;16.71;89.13
39141;BME280;24875;48.436;10.298;2023-05-23T20:32:29;96418.19;;;16.80;89.56
39141;BME280;24875;48.436;10.298;2023-05-23T20:34:55;96417.00;;;16.70;89.23
39141;BME280;24875;48.436;10.298;2023-05-23T20:37:22;96416.03;;;16.51;91.13
39141;BME280;24875;48.436;10.298;2023-05-23T20:39:49;96416.22;;;16.63;90.40
39141;BME280;24875;48.436;10.298;2023-05-23T20:42:16;96418.28;;;16.48;90.44
39141;BME280;24875;48.436;10.298;2023-05-23T20:44:44;96424.47;;;16.42;91.17
39141;BME280;24875;48.436;10.298;2023-05-23T20:47:11;96417.50;;;16.41;90.77